Time;durP1;ratioP1;P1;durP2;ratioP2;P2;SDS_P1;SDS_P2;PMS_P1;PMS_P2;Temp;Humidity;BMP_temperature;BMP_pressure;BME280_temperature;BME280_humidity;BME280_pressure;Samples;Min_cycle;Max_cycle;Signal;HPM_P1;HPM_P2
2021/01/01 00:00:23;;;;;;;50.35;26.05;;;1.50;99.90;;;;;;5058518;28;20032;-66
2021/01/01 00:02:51;;;;;;;32.38;16.20;;;1.50;99.90;;;;;;5057895;28;20032;-66
2021/01/01 00:05:20;;;;;;;30.50;15.90;;;1.50;99.90;;;;;;5058373;28;20047;-66
2021/01/01 00:07:47;;;;;;;20.52;11.95;;;1.50;99.90;;;;;;5058406;28;20387;-66
2021/01/01 00:10:15;;;;;;;20.83;10.55;;;1.50;99.90;;;;;;5058215;28;20083;-66
2021/01/01 00:12:43;;;;;;;17.92;9.75;;;1.50;99.90;;;;;;5058277;28;20017;-66
2021/01/01 00:15:12;;;;;;;18.00;8.23;;;1.50;99.90;;;;;;5057602;28;20396;-66
2021/01/01 00:17:39;;;;;;;17.23;9.02;;;1.50;99.90;;;;;;5057485;28;20021;-66
2021/01/01 00:20:10;;;;;;;17.15;8.75;;;1.50;99.90;;;;;;5057548;28;20104;-66
2021/01/01 00:22:39;;;;;;;16.85;8.55;;;1.50;99.90;;;;;;5057628;28;20429;-66
2021/01/01 00:25:07;;;;;;;18.08;9.25;;;1.50;99.90;;;;;;5057534;28;20040;-66
2021/01/01 00:27:35;;;;;;;21.92;9.93;;;1.50;99.90;;;;;;5040334;28;20064;-66
2021/01/01 00:30:11;;;;;;;16.23;9.25;;;1.50;99.90;;;;;;5057395;28;20025;-66
2021/01/01 00:32:43;;;;;;;18.92;8.93;;;1.50;99.90;;;;;;5057324;28;20317;-66
2021/01/01 00:35:11;;;;;;;18.23;8.93;;;1.50;99.90;;;;;;5057301;28;20021;-66
2021/01/01 00:37:40;;;;;;;19.20;8.68;;;1.50;99.90;;;;;;5057865;28;20027;-66
2021/01/01 00:40:08;;;;;;;20.60;9.48;;;1.50;99.90;;;;;;5039558;28;20032;-66
2021/01/01 00:42:37;;;;;;;17.10;9.15;;;1.50;99.90;;;;;;5023476;28;20021;-66
2021/01/01 00:45:06;;;;;;;15.02;9.13;;;1.50;99.90;;;;;;5039343;28;20111;-66
2021/01/01 00:47:34;;;;;;;17.75;9.25;;;1.50;99.90;;;;;;5057173;28;20029;-66
2021/01/01 00:50:02;;;;;;;16.38;9.75;;;1.50;99.90;;;;;;5039303;28;20029;-66
2021/01/01 00:52:29;;;;;;;19.50;9.82;;;1.50;99.90;;;;;;5039499;28;20412;-66
2021/01/01 00:54:57;;;;;;;17.48;9.40;;;1.50;99.90;;;;;;5039390;28;20021;-66
2021/01/01 00:57:24;;;;;;;16.23;8.75;;;1.50;99.90;;;;;;5056954;28;20483;-66
2021/01/01 00:59:52;;;;;;;17.48;8.75;;;1.50;99.90;;;;;;5056872;28;20036;-66
2021/01/01 01:02:19;;;;;;;15.10;8.55;;;1.60;99.90;;;;;;5057529;28;20062;-66
2021/01/01 01:04:48;;;;;;;17.17;8.88;;;1.50;99.90;;;;;;5057389;28;20082;-66
2021/01/01 01:07:16;;;;;;;20.13;10.75;;;1.60;99.90;;;;;;5057328;28;20293;-66
2021/01/01 01:09:44;;;;;;;21.33;12.23;;;1.50;99.90;;;;;;5056545;28;20120;-66
2021/01/01 01:12:13;;;;;;;157.95;45.45;;;1.60;99.90;;;;;;5039840;28;20294;-66
2021/01/01 01:14:41;;;;;;;58.50;21.67;;;1.50;99.90;;;;;;5056651;28;20294;-66
2021/01/01 01:17:09;;;;;;;49.10;22.52;;;1.50;99.90;;;;;;5056762;28;20032;-66
2021/01/01 01:19:37;;;;;;;32.78;15.35;;;1.50;99.90;;;;;;5057138;28;20033;-66
2021/01/01 01:22:05;;;;;;;43.95;18.45;;;1.50;99.90;;;;;;5057243;28;20090;-66
2021/01/01 01:24:32;;;;;;;42.70;17.73;;;1.50;99.90;;;;;;5056525;28;20025;-66
2021/01/01 01:27:00;;;;;;;41.30;16.65;;;1.50;99.90;;;;;;5057022;28;20025;-66
2021/01/01 01:29:27;;;;;;;42.45;17.60;;;1.50;99.90;;;;;;5056273;28;20348;-66
2021/01/01 01:31:54;;;;;;;37.13;16.90;;;1.50;99.90;;;;;;5056954;28;20029;-66
2021/01/01 01:34:22;;;;;;;35.22;15.25;;;1.40;99.90;;;;;;5056947;28;20013;-66
2021/01/01 01:36:49;;;;;;;30.90;13.70;;;1.40;99.90;;;;;;5056537;28;20017;-66
2021/01/01 01:39:17;;;;;;;26.13;11.75;;;1.30;99.90;;;;;;5056245;28;20379;-66
2021/01/01 01:41:44;;;;;;;22.10;11.82;;;1.30;99.90;;;;;;5056321;28;20440;-66
2021/01/01 01:44:12;;;;;;;21.90;11.00;;;1.30;99.90;;;;;;5038537;28;20043;-66
2021/01/01 01:46:42;;;;;;;21.75;10.65;;;1.30;99.90;;;;;;5056188;28;20417;-66
2021/01/01 01:49:15;;;;;;;17.92;9.68;;;1.20;99.90;;;;;;5056169;28;20075;-67
2021/01/01 01:51:52;;;;;;;23.20;11.10;;;1.20;99.90;;;;;;5056801;28;20432;-66
2021/01/01 01:54:19;;;;;;;40.03;17.75;;;1.20;99.90;;;;;;5056196;28;20031;-66
2021/01/01 01:56:48;;;;;;;24.95;12.35;;;1.10;99.90;;;;;;5056754;28;20021;-66
2021/01/01 01:59:18;;;;;;;20.40;10.75;;;1.10;99.90;;;;;;5056367;28;20032;-66
2021/01/01 02:01:46;;;;;;;20.70;10.98;;;1.10;99.90;;;;;;5056803;28;20029;-66
2021/01/01 02:04:13;;;;;;;69.65;26.02;;;1.10;99.90;;;;;;5056045;28;20021;-66
2021/01/01 02:06:43;;;;;;;83.95;29.15;;;1.10;99.90;;;;;;5056435;28;20108;-66
2021/01/01 02:09:13;;;;;;;62.83;25.48;;;1.10;99.90;;;;;;5065946;28;20052;-66
2021/01/01 02:11:42;;;;;;;46.63;20.50;;;1.00;99.90;;;;;;5076886;28;20021;-66
2021/01/01 02:14:12;;;;;;;33.50;15.85;;;1.00;99.90;;;;;;5076083;28;20078;-66
2021/01/01 02:16:40;;;;;;;33.60;15.02;;;1.00;99.90;;;;;;5076022;28;20017;-66
2021/01/01 02:19:07;;;;;;;49.90;21.17;;;0.90;99.90;;;;;;5076054;28;20039;-66
2021/01/01 02:21:39;;;;;;;42.75;19.45;;;0.90;99.90;;;;;;5076264;28;20024;-66
2021/01/01 02:24:12;;;;;;;41.25;20.50;;;0.90;99.90;;;;;;5075997;28;20074;-66
2021/01/01 02:26:39;;;;;;;31.85;14.80;;;0.90;99.90;;;;;;5076067;28;20013;-66
2021/01/01 02:29:07;;;;;;;28.85;13.25;;;0.90;99.90;;;;;;5076471;28;20019;-66
2021/01/01 02:31:35;;;;;;;36.13;15.25;;;0.80;99.90;;;;;;5075024;28;20028;-66
2021/01/01 02:34:03;;;;;;;24.48;13.63;;;0.90;99.90;;;;;;5075964;28;20108;-66
2021/01/01 02:36:31;;;;;;;28.73;14.10;;;0.90;99.90;;;;;;5076522;28;20021;-66
2021/01/01 02:39:00;;;;;;;27.15;13.18;;;0.90;99.90;;;;;;5076046;28;20463;-66
2021/01/01 02:41:29;;;;;;;27.92;13.65;;;0.90;99.90;;;;;;5079685;28;20029;-66
2021/01/01 02:43:56;;;;;;;28.30;13.05;;;0.90;99.90;;;;;;5079498;28;20028;-66
2021/01/01 02:46:24;;;;;;;22.60;12.52;;;1.00;99.90;;;;;;5078293;28;20321;-66
2021/01/01 02:48:52;;;;;;;21.83;10.60;;;1.00;99.90;;;;;;5079717;28;20021;-66
2021/01/01 02:51:20;;;;;;;20.92;10.50;;;1.00;99.90;;;;;;5080142;28;20359;-66
2021/01/01 02:53:47;;;;;;;19.73;10.55;;;1.00;99.90;;;;;;5079319;28;20025;-66
2021/01/01 02:56:17;;;;;;;20.45;10.48;;;1.10;99.90;;;;;;5079337;28;20020;-66
2021/01/01 02:58:45;;;;;;;19.70;10.88;;;1.10;99.90;;;;;;5079159;28;20051;-66
2021/01/01 03:01:12;;;;;;;20.75;11.38;;;1.10;99.90;;;;;;5079380;28;20371;-66
2021/01/01 03:03:40;;;;;;;21.20;10.90;;;1.10;99.90;;;;;;5079702;28;20025;-66
2021/01/01 03:06:07;;;;;;;19.15;10.75;;;1.10;99.90;;;;;;5079623;28;20020;-66
2021/01/01 03:08:34;;;;;;;20.98;10.82;;;1.20;99.90;;;;;;5068551;28;20049;-66
2021/01/01 03:11:02;;;;;;;21.75;10.40;;;1.20;99.90;;;;;;5059388;28;20025;-66
2021/01/01 03:13:29;;;;;;;20.77;10.65;;;1.20;99.90;;;;;;5059448;28;20028;-66
2021/01/01 03:15:57;;;;;;;18.40;10.57;;;1.20;99.90;;;;;;5058946;28;20321;-66
2021/01/01 03:18:30;;;;;;;24.35;12.18;;;1.10;99.90;;;;;;5059330;28;20013;-66
2021/01/01 03:20:58;;;;;;;20.65;11.43;;;1.10;99.90;;;;;;5059100;28;20048;-66
2021/01/01 03:23:26;;;;;;;23.20;11.82;;;1.10;99.90;;;;;;5041009;28;20029;-66
2021/01/01 03:25:53;;;;;;;25.65;12.25;;;1.10;99.90;;;;;;5059431;28;20025;-66
2021/01/01 03:28:21;;;;;;;28.35;12.35;;;1.10;99.90;;;;;;5059170;28;20025;-66
2021/01/01 03:30:49;;;;;;;24.92;12.20;;;1.00;99.90;;;;;;5040804;28;20079;-66
2021/01/01 03:33:17;;;;;;;20.15;11.10;;;1.00;99.90;;;;;;5040842;28;20024;-66
2021/01/01 03:35:45;;;;;;;20.40;11.10;;;1.00;99.90;;;;;;5041108;28;20025;-66
2021/01/01 03:38:13;;;;;;;25.65;11.75;;;1.00;99.90;;;;;;5058406;28;20028;-66
2021/01/01 03:40:40;;;;;;;21.23;11.27;;;0.90;99.90;;;;;;5058944;28;20023;-66
2021/01/01 03:43:09;;;;;;;27.25;13.35;;;0.90;99.90;;;;;;5058349;28;20025;-66
2021/01/01 03:45:37;;;;;;;28.00;12.85;;;1.00;99.90;;;;;;5058772;28;20045;-66
2021/01/01 03:48:05;;;;;;;28.92;12.85;;;1.00;99.90;;;;;;5058978;28;20043;-66
2021/01/01 03:50:32;;;;;;;26.30;14.48;;;1.00;99.90;;;;;;5058399;28;20037;-66
2021/01/01 03:53:00;;;;;;;28.67;15.80;;;1.00;99.90;;;;;;5057876;28;20014;-66
2021/01/01 03:55:30;;;;;;;30.75;14.57;;;1.10;99.90;;;;;;5058063;28;20025;-66
2021/01/01 03:57:58;;;;;;;25.13;13.80;;;1.10;99.90;;;;;;5058350;28;20116;-66
2021/01/01 04:00:25;;;;;;;35.22;14.93;;;1.20;99.90;;;;;;5058226;28;20029;-66
2021/01/01 04:02:53;;;;;;;29.23;14.52;;;1.20;99.90;;;;;;5040161;28;20025;-66
2021/01/01 04:05:20;;;;;;;27.02;12.82;;;1.20;99.90;;;;;;5040608;28;20356;-66
2021/01/01 04:07:48;;;;;;;24.92;12.48;;;1.30;99.90;;;;;;5057968;28;20451;-66
2021/01/01 04:10:17;;;;;;;25.75;12.52;;;1.30;99.90;;;;;;5057729;28;20021;-66
2021/01/01 04:12:44;;;;;;;25.55;13.27;;;1.40;99.90;;;;;;5040131;28;20033;-66
2021/01/01 04:15:12;;;;;;;26.42;13.27;;;1.40;99.90;;;;;;5040182;28;20025;-66
2021/01/01 04:17:39;;;;;;;26.88;13.95;;;1.40;99.90;;;;;;5058164;28;20021;-66
2021/01/01 04:20:07;;;;;;;24.17;12.25;;;1.40;99.90;;;;;;5058128;28;20021;-66
2021/01/01 04:22:35;;;;;;;25.15;12.68;;;1.40;99.90;;;;;;5057898;28;20126;-66
2021/01/01 04:25:02;;;;;;;23.70;12.65;;;1.40;99.90;;;;;;5057529;28;20468;-66
2021/01/01 04:27:30;;;;;;;23.98;11.75;;;1.40;99.90;;;;;;5057484;28;20108;-66
2021/01/01 04:29:58;;;;;;;23.95;12.45;;;1.40;99.90;;;;;;5057559;28;20029;-66
2021/01/01 04:32:26;;;;;;;23.42;12.98;;;1.40;99.90;;;;;;5057522;28;20340;-66
2021/01/01 04:34:53;;;;;;;23.63;13.15;;;1.40;99.90;;;;;;5057377;28;20167;-66
2021/01/01 04:37:21;;;;;;;26.73;14.35;;;1.40;99.90;;;;;;5057353;28;20021;-66
2021/01/01 04:39:49;;;;;;;29.20;13.48;;;1.50;99.90;;;;;;5057471;28;20107;-66
2021/01/01 04:42:17;;;;;;;21.75;12.45;;;1.50;99.90;;;;;;5057941;28;20364;-66
2021/01/01 04:44:45;;;;;;;25.92;12.75;;;1.40;99.90;;;;;;5057706;28;20052;-66
2021/01/01 04:47:15;;;;;;;30.08;13.43;;;1.40;99.90;;;;;;5057064;28;20057;-66
2021/01/01 04:49:43;;;;;;;32.70;13.75;;;1.40;99.90;;;;;;5056982;28;20021;-66
2021/01/01 04:52:14;;;;;;;27.35;14.63;;;1.40;99.90;;;;;;5057727;28;20471;-66
2021/01/01 04:54:46;;;;;;;28.80;14.10;;;1.40;99.90;;;;;;5057516;28;20025;-66
2021/01/01 04:57:14;;;;;;;26.52;13.50;;;1.40;99.90;;;;;;5056911;28;20017;-66
2021/01/01 04:59:41;;;;;;;25.15;12.80;;;1.40;99.90;;;;;;5039134;28;20388;-66
2021/01/01 05:02:08;;;;;;;26.88;13.18;;;1.40;99.90;;;;;;5056928;28;20107;-66
2021/01/01 05:04:36;;;;;;;29.83;14.10;;;1.50;99.90;;;;;;5056164;28;20104;-66
2021/01/01 05:07:03;;;;;;;28.92;14.10;;;1.40;99.90;;;;;;5056823;28;20021;-66
2021/01/01 05:09:33;;;;;;;29.10;14.32;;;1.50;99.90;;;;;;5056617;28;20048;-66
2021/01/01 05:12:10;;;;;;;29.10;13.43;;;1.50;99.90;;;;;;5057418;28;20406;-66
2021/01/01 05:14:39;;;;;;;27.02;13.55;;;1.40;99.90;;;;;;5056607;28;20052;-66
2021/01/01 05:17:06;;;;;;;25.17;13.57;;;1.40;99.90;;;;;;5056551;28;20017;-66
2021/01/01 05:19:38;;;;;;;24.95;13.63;;;1.40;99.90;;;;;;5056607;28;20138;-66
2021/01/01 05:22:12;;;;;;;24.48;12.82;;;1.40;99.90;;;;;;5056689;28;20429;-66
2021/01/01 05:24:43;;;;;;;24.70;13.70;;;1.40;99.90;;;;;;5056807;28;20360;-66
2021/01/01 05:27:16;;;;;;;25.90;13.43;;;1.40;99.90;;;;;;5056486;28;20086;-66
2021/01/01 05:29:55;;;;;;;30.58;14.98;;;1.40;99.90;;;;;;5038743;28;20061;-66
2021/01/01 05:32:28;;;;;;;29.55;14.80;;;1.40;99.90;;;;;;5056353;28;20025;-66
2021/01/01 05:34:57;;;;;;;26.25;13.68;;;1.40;99.90;;;;;;5056700;28;20470;-66
2021/01/01 05:37:35;;;;;;;25.42;13.02;;;1.40;99.90;;;;;;5038666;28;20025;-66
2021/01/01 05:40:03;;;;;;;32.08;15.68;;;1.40;99.90;;;;;;5056890;28;20081;-66
2021/01/01 05:42:30;;;;;;;32.22;16.38;;;1.40;99.90;;;;;;5056865;28;20036;-66
2021/01/01 05:45:12;;;;;;;38.58;16.70;;;1.40;99.90;;;;;;5056881;28;20317;-66
2021/01/01 05:47:40;;;;;;;41.33;17.83;;;1.40;99.90;;;;;;5038679;28;20025;-66
2021/01/01 05:50:09;;;;;;;42.05;19.70;;;1.40;99.90;;;;;;5056742;28;20363;-66
2021/01/01 05:52:37;;;;;;;37.47;16.75;;;1.40;99.90;;;;;;5056286;28;20021;-66
2021/01/01 05:55:06;;;;;;;30.70;15.50;;;1.40;99.90;;;;;;5056088;28;20021;-66
2021/01/01 05:57:43;;;;;;;31.95;16.45;;;1.40;99.90;;;;;;5056333;28;20421;-66
2021/01/01 06:00:12;;;;;;;38.58;17.92;;;1.50;99.90;;;;;;5038419;28;20476;-66
2021/01/01 06:02:41;;;;;;;39.03;18.38;;;1.50;99.90;;;;;;5056162;28;20108;-66
2021/01/01 06:05:13;;;;;;;37.75;17.55;;;1.50;99.90;;;;;;5056093;28;20328;-66
2021/01/01 06:07:41;;;;;;;39.90;18.67;;;1.50;99.90;;;;;;5056200;28;20029;-66
2021/01/01 06:10:11;;;;;;;39.90;18.90;;;1.50;99.90;;;;;;5038280;28;20110;-66
2021/01/01 06:12:40;;;;;;;31.50;15.40;;;1.50;99.90;;;;;;5056014;28;20083;-66
2021/01/01 06:15:09;;;;;;;35.92;17.48;;;1.50;99.90;;;;;;5058138;28;20021;-66
2021/01/01 06:17:52;;;;;;;42.80;20.23;;;1.50;99.90;;;;;;5060073;28;20032;-66
2021/01/01 06:20:21;;;;;;;38.17;18.27;;;1.40;99.90;;;;;;5059853;28;20425;-66
2021/01/01 06:23:03;;;;;;;38.63;16.75;;;1.40;99.90;;;;;;5059849;28;20082;-66
2021/01/01 06:25:31;;;;;;;37.08;18.10;;;1.40;99.90;;;;;;5060088;28;20028;-66
2021/01/01 06:27:59;;;;;;;40.85;18.60;;;1.40;99.90;;;;;;5060118;28;20031;-66
2021/01/01 06:30:28;;;;;;;41.83;19.52;;;1.30;99.90;;;;;;5059645;28;20048;-66
2021/01/01 06:32:59;;;;;;;37.80;17.63;;;1.30;99.90;;;;;;5059503;28;20021;-66
2021/01/01 06:35:27;;;;;;;35.78;17.77;;;1.20;99.90;;;;;;5059563;28;20326;-66
2021/01/01 06:37:56;;;;;;;40.15;17.60;;;1.20;99.90;;;;;;5060293;28;20103;-66
2021/01/01 06:40:27;;;;;;;42.47;19.75;;;1.20;99.90;;;;;;5059529;28;20028;-66
2021/01/01 06:42:59;;;;;;;36.58;19.75;;;1.10;99.90;;;;;;5060070;28;20409;-66
2021/01/01 06:45:43;;;;;;;41.28;19.08;;;1.10;99.90;;;;;;5059977;28;20032;-66
2021/01/01 06:48:12;;;;;;;41.38;18.27;;;1.10;99.90;;;;;;5059340;28;20025;-66
2021/01/01 06:50:43;;;;;;;41.35;18.73;;;1.10;99.90;;;;;;5059775;28;20028;-66
2021/01/01 06:53:15;;;;;;;46.47;19.75;;;1.10;99.90;;;;;;5059163;28;20021;-66
2021/01/01 06:55:45;;;;;;;46.80;20.15;;;1.10;99.90;;;;;;5059217;28;20013;-66
2021/01/01 06:58:13;;;;;;;49.22;21.02;;;1.10;99.90;;;;;;5059174;28;20025;-66
2021/01/01 07:00:49;;;;;;;49.83;20.52;;;1.10;99.90;;;;;;5059227;28;20029;-66
2021/01/01 07:03:39;;;;;;;45.67;20.52;;;1.10;99.90;;;;;;5059604;28;20413;-66
2021/01/01 07:06:07;;;;;;;43.60;19.27;;;1.10;99.90;;;;;;5059313;28;20440;-66
2021/01/01 07:08:41;;;;;;;47.38;19.33;;;1.10;99.90;;;;;;5059202;28;20496;-66
2021/01/01 07:11:12;;;;;;;46.28;21.15;;;1.10;99.90;;;;;;5041285;28;20029;-65
2021/01/01 07:13:47;;;;;;;48.00;20.67;;;1.10;99.90;;;;;;5040948;28;20047;-65
2021/01/01 07:16:16;;;;;;;48.15;21.20;;;1.10;99.90;;;;;;5058963;28;20048;-65
2021/01/01 07:18:44;;;;;;;59.85;24.55;;;1.10;99.90;;;;;;5058813;28;20044;-65
2021/01/01 07:21:14;;;;;;;58.63;24.20;;;1.10;99.90;;;;;;5059348;28;20349;-65
2021/01/01 07:23:43;;;;;;;57.80;24.60;;;1.10;99.90;;;;;;5058665;28;20029;-65
2021/01/01 07:26:15;;;;;;;57.83;22.73;;;1.00;99.90;;;;;;5058099;28;20032;-65
2021/01/01 07:28:49;;;;;;;60.35;23.38;;;1.10;99.90;;;;;;5059404;28;20405;-65
2021/01/01 07:31:18;;;;;;;47.50;22.55;;;1.10;99.90;;;;;;5058690;28;20033;-65
2021/01/01 07:33:47;;;;;;;58.97;23.50;;;1.10;99.90;;;;;;5058504;28;20423;-65
2021/01/01 07:36:17;;;;;;;52.40;23.10;;;1.10;99.90;;;;;;5040874;28;20413;-65
2021/01/01 07:38:48;;;;;;;54.28;22.27;;;1.10;99.90;;;;;;5058433;28;20013;-65
2021/01/01 07:41:24;;;;;;;60.33;24.40;;;1.20;99.90;;;;;;5058385;28;20021;-65
2021/01/01 07:43:52;;;;;;;51.47;21.88;;;1.20;99.90;;;;;;5058346;28;20025;-65
2021/01/01 07:46:20;;;;;;;56.92;22.63;;;1.20;99.90;;;;;;5040590;28;20337;-65
2021/01/01 07:48:54;;;;;;;54.10;22.83;;;1.20;99.90;;;;;;5058239;28;20052;-65
2021/01/01 07:51:21;;;;;;;56.78;21.75;;;1.20;99.90;;;;;;5058109;28;20303;-66
2021/01/01 07:53:49;;;;;;;50.03;20.73;;;1.20;99.90;;;;;;5058102;28;20021;-64
2021/01/01 07:56:16;;;;;;;48.75;19.80;;;1.30;99.90;;;;;;5058229;28;20104;-65
2021/01/01 07:58:45;;;;;;;51.60;21.35;;;1.30;99.90;;;;;;5040318;28;20017;-66
2021/01/01 08:01:12;;;;;;;46.53;19.13;;;1.30;99.90;;;;;;5058019;28;20021;-66
2021/01/01 08:03:40;;;;;;;47.47;19.75;;;1.30;99.90;;;;;;5057822;28;20021;-65
2021/01/01 08:06:09;;;;;;;66.75;27.17;;;1.30;99.90;;;;;;5058453;28;20063;-65
2021/01/01 08:08:37;;;;;;;63.58;26.55;;;1.30;99.90;;;;;;5058095;28;20053;-66
2021/01/01 08:11:07;;;;;;;54.08;21.63;;;1.30;99.90;;;;;;5057734;28;20078;-66
2021/01/01 08:13:35;;;;;;;49.50;21.70;;;1.40;99.90;;;;;;5039999;28;20025;-67
2021/01/01 08:16:17;;;;;;;51.47;21.27;;;1.40;99.90;;;;;;5057787;28;20025;-65
2021/01/01 08:18:44;;;;;;;46.83;18.08;;;1.40;99.90;;;;;;5057512;28;20028;-66
2021/01/01 08:21:11;;;;;;;50.58;19.38;;;1.40;99.90;;;;;;5039863;28;20384;-65
2021/01/01 08:23:59;;;;;;;48.58;20.38;;;1.40;99.90;;;;;;5057559;28;20017;-65
2021/01/01 08:26:27;;;;;;;50.75;20.67;;;1.40;99.90;;;;;;5057660;28;20029;-68
2021/01/01 08:28:58;;;;;;;51.88;20.75;;;1.40;99.90;;;;;;5057369;28;20150;-67
2021/01/01 08:31:26;;;;;;;53.33;19.85;;;1.40;99.90;;;;;;5057325;28;20049;-67
2021/01/01 08:33:53;;;;;;;50.50;19.73;;;1.40;99.90;;;;;;5057673;28;20049;-67
2021/01/01 08:36:31;;;;;;;52.58;20.05;;;1.40;99.90;;;;;;5057431;28;20432;-67
2021/01/01 08:39:11;;;;;;;52.92;20.02;;;1.40;99.90;;;;;;5057323;28;20028;-67
2021/01/01 08:41:47;;;;;;;47.70;18.83;;;1.40;99.90;;;;;;5057127;28;20333;-66
2021/01/01 08:44:16;;;;;;;33.05;14.00;;;1.40;99.90;;;;;;5058266;28;20352;-66
2021/01/01 08:46:44;;;;;;;43.95;18.88;;;1.50;99.90;;;;;;5057479;28;20044;-65
2021/01/01 08:49:18;;;;;;;47.42;17.75;;;1.50;99.90;;;;;;5057541;28;20029;-66
2021/01/01 08:51:48;;;;;;;50.75;20.17;;;1.50;99.90;;;;;;5039273;28;20032;-66
2021/01/01 08:54:26;;;;;;;49.75;21.30;;;1.60;99.90;;;;;;5056859;28;20040;-67
2021/01/01 08:56:59;;;;;;;50.90;20.30;;;1.60;99.90;;;;;;5057134;28;20045;-66
2021/01/01 08:59:28;;;;;;;51.50;21.27;;;1.70;99.90;;;;;;5056890;28;20443;-66
2021/01/01 09:01:57;;;;;;;43.40;20.33;;;1.70;99.90;;;;;;5057056;28;20178;-65
2021/01/01 09:04:25;;;;;;;46.03;20.08;;;1.80;99.90;;;;;;5057290;28;20021;-65
2021/01/01 09:07:02;;;;;;;48.47;19.90;;;1.80;99.90;;;;;;5057515;28;20104;-65
2021/01/01 09:09:34;;;;;;;45.03;19.95;;;1.90;99.90;;;;;;5056479;28;20124;-65
2021/01/01 09:12:15;;;;;;;49.28;19.70;;;1.90;99.90;;;;;;5057327;28;20025;-66
2021/01/01 09:14:54;;;;;;;48.03;20.85;;;2.00;99.90;;;;;;5056669;28;20021;-65
2021/01/01 09:17:23;;;;;;;42.53;19.25;;;2.00;99.90;;;;;;5056674;28;20017;-66
2021/01/01 09:20:09;;;;;;;49.72;21.00;;;2.00;99.90;;;;;;5056537;28;20311;-66
2021/01/01 09:22:41;;;;;;;43.17;18.63;;;2.00;99.90;;;;;;5022362;28;20441;-66
2021/01/01 09:25:25;;;;;;;42.03;18.35;;;2.00;99.90;;;;;;5056416;28;20061;-66
2021/01/01 09:27:54;;;;;;;42.28;18.30;;;2.10;99.90;;;;;;5056759;28;20448;-66
2021/01/01 09:30:24;;;;;;;42.17;18.30;;;2.10;99.90;;;;;;5056287;28;20111;-66
2021/01/01 09:32:55;;;;;;;38.15;17.55;;;2.20;99.90;;;;;;5056307;28;20449;-66
2021/01/01 09:35:23;;;;;;;36.80;18.60;;;2.40;99.90;;;;;;5056565;28;20021;-67
2021/01/01 09:37:56;;;;;;;40.08;19.17;;;2.50;99.90;;;;;;5038635;28;20051;-67
2021/01/01 09:40:29;;;;;;;40.22;17.48;;;2.60;99.90;;;;;;5056361;28;20075;-67
2021/01/01 09:43:01;;;;;;;36.05;17.00;;;2.60;99.90;;;;;;5056428;28;20384;-67
2021/01/01 09:45:29;;;;;;;36.92;16.15;;;2.60;99.90;;;;;;5056419;28;20328;-68
2021/01/01 09:47:58;;;;;;;30.80;16.35;;;2.50;99.90;;;;;;5056224;28;20028;-66
2021/01/01 09:50:26;;;;;;;36.00;16.38;;;2.40;99.90;;;;;;5058941;28;20258;-66
2021/01/01 09:52:53;;;;;;;36.17;16.73;;;2.30;99.90;;;;;;5060992;28;20028;-66
2021/01/01 09:55:24;;;;;;;36.85;15.90;;;2.30;99.90;;;;;;5042605;28;20428;-67
2021/01/01 09:57:52;;;;;;;36.42;15.60;;;2.30;99.90;;;;;;5042565;28;20028;-67
2021/01/01 10:00:20;;;;;;;31.33;15.55;;;2.30;99.90;;;;;;5060785;28;20474;-67
2021/01/01 10:02:47;;;;;;;32.83;15.70;;;2.30;99.90;;;;;;5060176;28;20021;-67
2021/01/01 10:05:15;;;;;;;30.05;15.35;;;2.30;99.90;;;;;;5060682;28;20021;-67
2021/01/01 10:07:42;;;;;;;32.60;14.85;;;2.30;99.90;;;;;;5042508;28;20032;-67
2021/01/01 10:10:10;;;;;;;31.30;15.18;;;2.30;99.90;;;;;;5042301;28;20124;-67
2021/01/01 10:12:38;;;;;;;27.75;14.05;;;2.40;99.90;;;;;;5060713;28;20025;-67
2021/01/01 10:15:06;;;;;;;33.92;15.15;;;2.40;99.90;;;;;;5060526;28;20025;-67
2021/01/01 10:17:33;;;;;;;31.90;14.43;;;2.40;99.90;;;;;;5060141;28;20028;-67
2021/01/01 10:20:01;;;;;;;32.30;14.95;;;2.40;99.90;;;;;;5059875;28;20017;-67
2021/01/01 10:22:28;;;;;;;25.88;12.50;;;2.40;99.90;;;;;;5059845;28;20082;-67
2021/01/01 10:24:56;;;;;;;28.48;13.35;;;2.30;99.90;;;;;;5059825;28;20317;-67
2021/01/01 10:27:24;;;;;;;32.80;13.93;;;2.30;99.90;;;;;;5042188;28;20333;-67
2021/01/01 10:29:52;;;;;;;31.33;15.05;;;2.20;99.90;;;;;;5059670;28;20021;-67
2021/01/01 10:32:19;;;;;;;27.80;14.07;;;2.10;99.90;;;;;;5059770;28;20096;-67
2021/01/01 10:34:46;;;;;;;30.98;13.38;;;2.10;99.90;;;;;;5060207;28;20290;-66
2021/01/01 10:37:13;;;;;;;33.53;14.85;;;2.10;99.90;;;;;;5059779;28;20352;-67
2021/01/01 10:39:41;;;;;;;32.22;13.32;;;2.00;99.90;;;;;;5059479;28;20024;-66
2021/01/01 10:42:09;;;;;;;29.73;14.30;;;2.00;99.90;;;;;;5059390;28;20103;-66
2021/01/01 10:44:37;;;;;;;34.72;15.45;;;2.00;99.90;;;;;;5041736;28;20036;-67
2021/01/01 10:47:04;;;;;;;30.38;12.82;;;2.10;99.90;;;;;;5059726;28;20078;-65
2021/01/01 10:49:33;;;;;;;28.60;12.82;;;2.10;99.90;;;;;;5041527;28;20032;-66
2021/01/01 10:52:01;;;;;;;26.38;13.45;;;2.10;99.90;;;;;;5059539;28;20044;-66
2021/01/01 10:54:29;;;;;;;26.10;13.75;;;2.10;99.90;;;;;;5059199;28;20028;-66
2021/01/01 10:56:56;;;;;;;27.77;13.32;;;2.10;99.90;;;;;;5041735;28;20025;-66
2021/01/01 10:59:24;;;;;;;28.10;13.70;;;2.10;99.90;;;;;;5041730;28;20028;-66
2021/01/01 11:01:55;;;;;;;29.00;13.48;;;2.10;99.90;;;;;;5041250;28;20021;-68
2021/01/01 11:04:23;;;;;;;30.00;13.60;;;2.10;99.90;;;;;;5041270;28;20029;-67
